Time;durP1;ratioP1;P1;durP2;ratioP2;P2;SDS_P1;SDS_P2;PMS_P1;PMS_P2;Temp;Humidity;BMP_temperature;BMP_pressure;BME280_temperature;BME280_humidity;BME280_pressure;Samples;Min_cycle;Max_cycle;Signal;HPM_P1;HPM_P2
2021/05/12 00:00:10;;;;;;;;;;;;;;;;;;4977550;28;19922;-54
2021/05/12 00:02:36;;;;;;;;;;;;;;;;;;4977025;28;20368;-56
2021/05/12 00:05:01;;;;;;;;;;;;;;;;;;4977181;28;20361;-55
2021/05/12 00:07:26;;;;;;;;;;;;;;;;;;4977008;28;20456;-55
2021/05/12 00:09:51;;;;;;;;;;;;;;;;;;4977201;28;19914;-56
2021/05/12 00:12:16;;;;;;;;;;;;;;;;;;4977058;28;20333;-54
2021/05/12 00:14:42;;;;;;;;;;;;;;;;;;4977089;28;19969;-59
2021/05/12 00:17:10;;;;;;;;;;;;;;;;;;4975905;28;20329;-55
2021/05/12 00:19:37;;;;;;;;;;;;;;;;;;4991715;28;19918;-53
2021/05/12 00:24:33;;;;;;;;;;;;;;;;;;4976437;28;19918;-50
2021/05/12 00:26:59;;;;;;;;;;;;;;;;;;4992091;28;19910;-53
2021/05/12 00:29:24;;;;;;;;;;;;;;;;;;4975630;28;19937;-53
2021/05/12 00:31:49;;;;;;;;;;;;;;;;;;4976531;28;20396;-53
2021/05/12 00:34:15;;;;;;;;;;;;;;;;;;4976779;28;20352;-56
2021/05/12 00:36:40;;;;;;;;;;;;;;;;;;4991281;28;20326;-54
2021/05/12 00:39:05;;;;;;;;;;;;;;;;;;4976009;28;19917;-55
2021/05/12 00:41:30;;;;;;;;;;;;;;;;;;4976407;28;19922;-56
2021/05/12 00:43:56;;;;;;;;;;;;;;;;;;4976638;28;19937;-53
2021/05/12 00:46:21;;;;;;;;;;;;;;;;;;4978238;28;20342;-56
2021/05/12 00:48:46;;;;;;;;;;;;;;;;;;4984602;28;19919;-56
2021/05/12 00:51:11;;;;;;;;;;;;;;;;;;4975217;28;19914;-54
2021/05/12 00:53:36;;;;;;;;;;;;;;;;;;4974753;28;19914;-54
2021/05/12 00:56:02;;;;;;;;;;;;;;;;;;4976258;28;19915;-55
2021/05/12 00:58:27;;;;;;;;;;;;;;;;;;4976083;28;19918;-53
2021/05/12 01:00:52;;;;;;;;;;;;;;;;;;4974555;28;20407;-52
2021/05/12 01:03:17;;;;;;;;;;;;;;;;;;4975321;28;19918;-55
2021/05/12 01:05:42;;;;;;;;;;;;;;;;;;4976344;28;19960;-55
2021/05/12 01:08:08;;;;;;;;;;;;;;;;;;4974744;28;20001;-54
2021/05/12 01:10:33;;;;;;;;;;;;;;;;;;4975949;28;20004;-54
2021/05/12 01:12:58;;;;;;;;;;;;;;;;;;4976111;28;19920;-54
2021/05/12 01:15:23;;;;;;;;;;;;;;;;;;4976057;28;19923;-55
2021/05/12 01:17:49;;;;;;;;;;;;;;;;;;4974458;28;19918;-53
2021/05/12 01:20:14;;;;;;;;;;;;;;;;;;4975864;28;19930;-55
2021/05/12 01:22:39;;;;;;;;;;;;;;;;;;4975381;28;19918;-54
2021/05/12 01:25:04;;;;;;;;;;;;;;;;;;4975799;28;19914;-54
2021/05/12 01:27:30;;;;;;;;;;;;;;;;;;4975785;28;19920;-54
2021/05/12 01:29:55;;;;;;;;;;;;;;;;;;4974354;28;19953;-55
2021/05/12 01:32:20;;;;;;;;;;;;;;;;;;4972175;28;19959;-56
2021/05/12 01:34:45;;;;;;;;;;;;;;;;;;4978676;28;19924;-55
2021/05/12 01:37:10;;;;;;;;;;;;;;;;;;4984638;28;19957;-54
2021/05/12 01:39:36;;;;;;;;;;;;;;;;;;4981885;28;19961;-56
2021/05/12 01:42:01;;;;;;;;;;;;;;;;;;4983723;28;19968;-54
2021/05/12 01:44:26;;;;;;;;;;;;;;;;;;4984636;28;19918;-57
2021/05/12 01:46:51;;;;;;;;;;;;;;;;;;4983251;28;19914;-53
2021/05/12 01:49:17;;;;;;;;;;;;;;;;;;4986350;28;20685;-54
2021/05/12 01:51:42;;;;;;;;;;;;;;;;;;4982397;28;19914;-56
2021/05/12 01:54:07;;;;;;;;;;;;;;;;;;4984201;28;19910;-56
2021/05/12 01:56:33;;;;;;;;;;;;;;;;;;4983800;28;19921;-54
2021/05/12 01:58:58;;;;;;;;;;;;;;;;;;4982220;28;19914;-54
2021/05/12 02:01:24;;;;;;;;;;;;;;;;;;4984134;28;19930;-51
2021/05/12 02:03:49;;;;;;;;;;;;;;;;;;4982618;28;19914;-54
2021/05/12 02:06:14;;;;;;;;;;;;;;;;;;4983204;28;19989;-55
2021/05/12 02:08:39;;;;;;;;;;;;;;;;;;4982612;28;19913;-55
2021/05/12 02:11:05;;;;;;;;;;;;;;;;;;4982528;28;20270;-56
2021/05/12 02:13:30;;;;;;;;;;;;;;;;;;4981957;28;19910;-55
2021/05/12 02:15:56;;;;;;;;;;;;;;;;;;4983895;28;19918;-54
2021/05/12 02:18:21;;;;;;;;;;;;;;;;;;4983609;28;19937;-57
2021/05/12 02:20:46;;;;;;;;;;;;;;;;;;4982098;28;20397;-56
2021/05/12 02:23:11;;;;;;;;;;;;;;;;;;4984061;28;20365;-54
2021/05/12 02:25:36;;;;;;;;;;;;;;;;;;4982308;28;19914;-53
2021/05/12 02:28:02;;;;;;;;;;;;;;;;;;4982729;28;19914;-52
2021/05/12 02:30:27;;;;;;;;;;;;;;;;;;4993484;28;20440;-51
2021/05/12 02:32:55;;;;;;;;;;;;;;;;;;4992144;28;19968;-53
2021/05/12 02:35:20;;;;;;;;;;;;;;;;;;4993750;28;19914;-54
2021/05/12 02:37:45;;;;;;;;;;;;;;;;;;4993854;28;19921;-56
2021/05/12 02:40:11;;;;;;;;;;;;;;;;;;4976596;28;19929;-50
2021/05/12 02:42:36;;;;;;;;;;;;;;;;;;4994289;28;20261;-52
2021/05/12 02:45:01;;;;;;;;;;;;;;;;;;4993824;28;19937;-54
2021/05/12 02:47:26;;;;;;;;;;;;;;;;;;4992644;28;20064;-54
2021/05/12 02:49:51;;;;;;;;;;;;;;;;;;4993761;28;19914;-52
2021/05/12 02:52:17;;;;;;;;;;;;;;;;;;4992702;28;20285;-51
2021/05/12 02:54:42;;;;;;;;;;;;;;;;;;4992410;28;20276;-53
2021/05/12 02:57:07;;;;;;;;;;;;;;;;;;4992885;28;19921;-53
2021/05/12 02:59:32;;;;;;;;;;;;;;;;;;4994012;28;20373;-53
2021/05/12 03:01:58;;;;;;;;;;;;;;;;;;4995746;28;19984;-54
2021/05/12 03:04:23;;;;;;;;;;;;;;;;;;4997819;28;19913;-55
2021/05/12 03:06:48;;;;;;;;;;;;;;;;;;4996270;28;19917;-54
2021/05/12 03:09:13;;;;;;;;;;;;;;;;;;4997834;28;19914;-53
2021/05/12 03:11:38;;;;;;;;;;;;;;;;;;4997817;28;20254;-55
2021/05/12 03:14:04;;;;;;;;;;;;;;;;;;4980089;28;20008;-54
2021/05/12 03:16:29;;;;;;;;;;;;;;;;;;4997669;28;19914;-54
2021/05/12 03:18:54;;;;;;;;;;;;;;;;;;4997375;28;20360;-54
2021/05/12 03:21:19;;;;;;;;;;;;;;;;;;4997561;28;19928;-54
2021/05/12 03:23:46;;;;;;;;;;;;;;;;;;4997129;28;19920;-54
2021/05/12 03:26:11;;;;;;;;;;;;;;;;;;4997893;28;19910;-55
2021/05/12 03:28:37;;;;;;;;;;;;;;;;;;4997960;28;19968;-56
2021/05/12 03:31:02;;;;;;;;;;;;;;;;;;4995795;28;19914;-54
2021/05/12 03:33:27;;;;;;;;;;;;;;;;;;4996389;28;19914;-54
2021/05/12 03:35:52;;;;;;;;;;;;;;;;;;4996962;28;19976;-52
2021/05/12 03:38:18;;;;;;;;;;;;;;;;;;4997097;28;19917;-54
2021/05/12 03:40:43;;;;;;;;;;;;;;;;;;4996769;28;20416;-52
2021/05/12 03:43:08;;;;;;;;;;;;;;;;;;4996526;28;19914;-55
2021/05/12 03:45:34;;;;;;;;;;;;;;;;;;4996896;28;19996;-55
2021/05/12 03:47:59;;;;;;;;;;;;;;;;;;4996605;28;19917;-57
2021/05/12 03:50:24;;;;;;;;;;;;;;;;;;4996613;28;19914;-55
2021/05/12 03:52:50;;;;;;;;;;;;;;;;;;4995306;28;20373;-55
2021/05/12 03:55:15;;;;;;;;;;;;;;;;;;4995302;28;19961;-54
2021/05/12 03:57:40;;;;;;;;;;;;;;;;;;4996710;28;19910;-52
2021/05/12 04:00:05;;;;;;;;;;;;;;;;;;4996411;28;20284;-56
2021/05/12 04:02:37;;;;;;;;;;;;;;;;;;4996692;28;20274;-56
2021/05/12 04:05:02;;;;;;;;;;;;;;;;;;4996393;28;19913;-54
2021/05/12 04:07:28;;;;;;;;;;;;;;;;;;4996555;28;20028;-55
2021/05/12 04:09:53;;;;;;;;;;;;;;;;;;4996242;28;20436;-53
2021/05/12 04:12:18;;;;;;;;;;;;;;;;;;4995390;28;19920;-52
2021/05/12 04:14:43;;;;;;;;;;;;;;;;;;4995185;28;19914;-54
2021/05/12 04:17:09;;;;;;;;;;;;;;;;;;4996250;28;19960;-52
2021/05/12 04:19:34;;;;;;;;;;;;;;;;;;4995239;28;19914;-53
2021/05/12 04:21:59;;;;;;;;;;;;;;;;;;4995948;28;20404;-52
2021/05/12 04:24:25;;;;;;;;;;;;;;;;;;4996051;28;19914;-52
2021/05/12 04:26:50;;;;;;;;;;;;;;;;;;4996241;28;19910;-52
2021/05/12 04:29:16;;;;;;;;;;;;;;;;;;4978565;28;20400;-51
2021/05/12 04:31:41;;;;;;;;;;;;;;;;;;4996048;28;20341;-52
2021/05/12 04:34:06;;;;;;;;;;;;;;;;;;4995827;28;19914;-55
2021/05/12 04:36:31;;;;;;;;;;;;;;;;;;4994760;28;19920;-51
2021/05/12 04:38:57;;;;;;;;;;;;;;;;;;4994322;28;19920;-51
2021/05/12 04:41:22;;;;;;;;;;;;;;;;;;4995957;28;20373;-52
2021/05/12 04:43:48;;;;;;;;;;;;;;;;;;4996103;28;19961;-52
2021/05/12 04:46:13;;;;;;;;;;;;;;;;;;4995905;28;20285;-56
2021/05/12 04:48:38;;;;;;;;;;;;;;;;;;4996030;28;20437;-54
2021/05/12 04:51:03;;;;;;;;;;;;;;;;;;4995501;28;19937;-52
2021/05/12 04:53:28;;;;;;;;;;;;;;;;;;4995957;28;20281;-55
2021/05/12 04:55:54;;;;;;;;;;;;;;;;;;4995581;28;19914;-54
2021/05/12 04:58:20;;;;;;;;;;;;;;;;;;4995561;28;19914;-53
2021/05/12 05:00:45;;;;;;;;;;;;;;;;;;4994191;28;20012;-54
2021/05/12 05:03:10;;;;;;;;;;;;;;;;;;4995576;28;20056;-53
2021/05/12 05:05:35;;;;;;;;;;;;;;;;;;4995412;28;20012;-53
2021/05/12 05:08:01;;;;;;;;;;;;;;;;;;4995285;28;19914;-55
2021/05/12 05:10:26;;;;;;;;;;;;;;;;;;4995467;28;20381;-54
2021/05/12 05:12:51;;;;;;;;;;;;;;;;;;4995387;28;19964;-54
2021/05/12 05:15:17;;;;;;;;;;;;;;;;;;4994890;28;19918;-57
2021/05/12 05:17:42;;;;;;;;;;;;;;;;;;4995298;28;19921;-54
2021/05/12 05:20:07;;;;;;;;;;;;;;;;;;4977609;28;19964;-52
2021/05/12 05:22:32;;;;;;;;;;;;;;;;;;4995051;28;20349;-53
2021/05/12 05:24:57;;;;;;;;;;;;;;;;;;4994637;28;20029;-54
2021/05/12 05:27:23;;;;;;;;;;;;;;;;;;4993746;28;19961;-56
2021/05/12 05:29:49;;;;;;;;;;;;;;;;;;4995031;28;19914;-55
2021/05/12 05:32:52;;;;;;;;;;;;;;;;;;4959193;28;19926;-53
2021/05/12 05:35:36;;;;;;;;;;;;;;;;;;4959833;28;19922;-55
2021/05/12 05:38:20;;;;;;;;;;;;;;;;;;4973679;28;20028;-55
2021/05/12 05:41:03;;;;;;;;;;;;;;;;;;4980285;28;19929;-55
2021/05/12 05:43:47;;;;;;;;;;;;;;;;;;4975720;28;19969;-53
2021/05/12 05:46:31;;;;;;;;;;;;;;;;;;4978325;28;19968;-51
2021/05/12 05:49:15;;;;;;;;;;;;;;;;;;4975299;28;19921;-55
2021/05/12 05:51:59;;;;;;;;;;;;;;;;;;4977943;28;20297;-51
2021/05/12 05:54:43;;;;;;;;;;;;;;;;;;4975593;28;20017;-54
2021/05/12 05:57:28;;;;;;;;;;;;;;;;;;4991785;28;20373;-53
2021/05/12 06:00:11;;;;;;;;;;;;;;;;;;4993302;28;20380;-52
2021/05/12 06:02:41;;;;;;;;;;;;;;;;;;4989977;28;20142;-53
2021/05/12 06:05:24;;;;;;;;;;;;;;;;;;4991378;28;20012;-50
2021/05/12 06:08:08;;;;;;;;;;;;;;;;;;4991616;28;19921;-51
2021/05/12 06:10:52;;;;;;;;;;;;;;;;;;4990437;28;19925;-51
2021/05/12 06:13:36;;;;;;;;;;;;;;;;;;4985063;28;19921;-52
2021/05/12 06:16:24;;;;;;;;;;;;;;;;;;4970901;28;19918;-53
2021/05/12 06:19:08;;;;;;;;;;;;;;;;;;4991003;28;20369;-52
2021/05/12 06:21:52;;;;;;;;;;;;;;;;;;4993970;28;19972;-50
2021/05/12 06:24:38;;;;;;;;;;;;;;;;;;4994533;28;19924;-51
2021/05/12 06:27:22;;;;;;;;;;;;;;;;;;4994082;28;19929;-50
2021/05/12 06:30:06;;;;;;;;;;;;;;;;;;4994402;28;19920;-54
2021/05/12 06:32:54;;;;;;;;;;;;;;;;;;4989857;28;20392;-54
2021/05/12 06:35:38;;;;;;;;;;;;;;;;;;4986393;28;19917;-55
2021/05/12 06:38:22;;;;;;;;;;;;;;;;;;4988084;28;19936;-56
2021/05/12 06:40:54;;;;;;;;;;;;;;;;;;4988014;28;19914;-54
2021/05/12 06:43:20;;;;;;;;;;;;;;;;;;4971524;28;20282;-56
2021/05/12 06:45:46;;;;;;;;;;;;;;;;;;4987455;28;20358;-55
2021/05/12 06:48:11;;;;;;;;;;;;;;;;;;4999469;28;19936;-55
2021/05/12 06:50:36;;;;;;;;;;;;;;;;;;4985716;28;19945;-57
2021/05/12 06:53:01;;;;;;;;;;;;;;;;;;4981982;28;19941;-56
2021/05/12 06:55:26;;;;;;;;;;;;;;;;;;4984554;28;19921;-53
2021/05/12 06:57:52;;;;;;;;;;;;;;;;;;4988193;28;20254;-54
2021/05/12 07:00:17;;;;;;;;;;;;;;;;;;4994792;28;19914;-55
2021/05/12 07:02:42;;;;;;;;;;;;;;;;;;4984285;28;20087;-55
2021/05/12 07:05:07;;;;;;;;;;;;;;;;;;4977166;28;20309;-54
2021/05/12 07:07:33;;;;;;;;;;;;;;;;;;4978475;28;19970;-56
2021/05/12 07:09:58;;;;;;;;;;;;;;;;;;4986976;28;19944;-57
2021/05/12 07:12:24;;;;;;;;;;;;;;;;;;4986161;28;19961;-52
2021/05/12 07:14:49;;;;;;;;;;;;;;;;;;4983994;28;19910;-55
2021/05/12 07:17:14;;;;;;;;;;;;;;;;;;4986192;28;19929;-54
2021/05/12 07:19:39;;;;;;;;;;;;;;;;;;4982188;28;19957;-54
2021/05/12 07:22:05;;;;;;;;;;;;;;;;;;4984922;28;19914;-56
2021/05/12 07:24:30;;;;;;;;;;;;;;;;;;4985843;28;19926;-56
2021/05/12 07:26:55;;;;;;;;;;;;;;;;;;4980402;28;19929;-56
2021/05/12 07:29:20;;;;;;;;;;;;;;;;;;4981461;28;19922;-55
2021/05/12 07:31:45;;;;;;;;;;;;;;;;;;4988502;28;19917;-54
2021/05/12 07:34:11;;;;;;;;;;;;;;;;;;4992402;28;19910;-57
2021/05/12 07:36:37;;;;;;;;;;;;;;;;;;4989763;28;19949;-56
2021/05/12 07:39:02;;;;;;;;;;;;;;;;;;5000400;28;19945;-55
2021/05/12 07:41:27;;;;;;;;;;;;;;;;;;4997951;28;19914;-56
2021/05/12 07:43:53;;;;;;;;;;;;;;;;;;5000199;28;19913;-56
2021/05/12 07:46:18;;;;;;;;;;;;;;;;;;5007467;28;19956;-55
2021/05/12 07:48:44;;;;;;;;;;;;;;;;;;5009911;28;19931;-55
2021/05/12 07:51:09;;;;;;;;;;;;;;;;;;5009773;28;19910;-57
2021/05/12 07:53:34;;;;;;;;;;;;;;;;;;5007590;28;19977;-55
2021/05/12 07:55:59;;;;;;;;;;;;;;;;;;5008234;28;20357;-56
2021/05/12 07:58:25;;;;;;;;;;;;;;;;;;5008080;28;19981;-56
2021/05/12 08:00:51;;;;;;;;;;;;;;;;;;5009982;28;19937;-55
2021/05/12 08:03:16;;;;;;;;;;;;;;;;;;5011081;28;19956;-57
2021/05/12 08:05:41;;;;;;;;;;;;;;;;;;4997408;28;19913;-54
2021/05/12 08:08:09;;;;;;;;;;;;;;;;;;4982125;28;19922;-53
2021/05/12 08:10:34;;;;;;;;;;;;;;;;;;4978222;28;19937;-55
2021/05/12 08:12:59;;;;;;;;;;;;;;;;;;4984483;28;20385;-50
2021/05/12 08:15:24;;;;;;;;;;;;;;;;;;4980994;28;19964;-55
2021/05/12 08:17:52;;;;;;;;;;;;;;;;;;4978514;28;19910;-53
2021/05/12 08:20:17;;;;;;;;;;;;;;;;;;4976582;28;19988;-54
2021/05/12 08:22:42;;;;;;;;;;;;;;;;;;4976749;28;20389;-53
2021/05/12 08:25:07;;;;;;;;;;;;;;;;;;4978140;28;19936;-55
2021/05/12 08:27:33;;;;;;;;;;;;;;;;;;4974911;28;20396;-54
2021/05/12 08:30:00;;;;;;;;;;;;;;;;;;4976755;28;19954;-54
2021/05/12 08:32:25;;;;;;;;;;;;;;;;;;4976154;28;19921;-50
2021/05/12 08:34:51;;;;;;;;;;;;;;;;;;4976529;28;20386;-52
2021/05/12 08:37:16;;;;;;;;;;;;;;;;;;4974537;28;19918;-55
2021/05/12 08:39:41;;;;;;;;;;;;;;;;;;4976139;28;19998;-51
2021/05/12 08:42:07;;;;;;;;;;;;;;;;;;4975983;28;19950;-50
2021/05/12 08:44:32;;;;;;;;;;;;;;;;;;4975440;28;20403;-53
2021/05/12 08:46:58;;;;;;;;;;;;;;;;;;4974643;28;19964;-54
2021/05/12 08:49:23;;;;;;;;;;;;;;;;;;4975413;28;19922;-54
2021/05/12 08:51:48;;;;;;;;;;;;;;;;;;4974795;28;19914;-53
2021/05/12 08:54:13;;;;;;;;;;;;;;;;;;4974976;28;19997;-55
2021/05/12 08:56:39;;;;;;;;;;;;;;;;;;4974273;28;20040;-55
2021/05/12 08:59:04;;;;;;;;;;;;;;;;;;4974890;28;19986;-54
2021/05/12 09:01:29;;;;;;;;;;;;;;;;;;4975025;28;19926;-53
2021/05/12 09:03:54;;;;;;;;;;;;;;;;;;4975484;28;20428;-53
2021/05/12 09:06:19;;;;;;;;;;;;;;;;;;4975966;28;20373;-55
2021/05/12 09:08:47;;;;;;;;;;;;;;;;;;4975857;28;20378;-56
2021/05/12 09:11:12;;;;;;;;;;;;;;;;;;4974145;28;19921;-54
2021/05/12 09:13:38;;;;;;;;;;;;;;;;;;4973675;28;19915;-53
2021/05/12 09:16:03;;;;;;;;;;;;;;;;;;4974357;28;20008;-53
2021/05/12 09:18:29;;;;;;;;;;;;;;;;;;4968436;28;20000;-56
2021/05/12 09:20:54;;;;;;;;;;;;;;;;;;4977432;28;19924;-54
2021/05/12 09:23:20;;;;;;;;;;;;;;;;;;4977508;28;20413;-57
2021/05/12 09:25:45;;;;;;;;;;;;;;;;;;4995280;28;20361;-54
2021/05/12 09:28:10;;;;;;;;;;;;;;;;;;4977152;28;19914;-53
2021/05/12 09:30:37;;;;;;;;;;;;;;;;;;4993152;28;19913;-52
2021/05/12 09:33:02;;;;;;;;;;;;;;;;;;4994261;28;19968;-54
2021/05/12 09:35:28;;;;;;;;;;;;;;;;;;4994105;28;19921;-55
2021/05/12 09:37:53;;;;;;;;;;;;;;;;;;4992527;28;19914;-53
2021/05/12 09:40:19;;;;;;;;;;;;;;;;;;4994584;28;20028;-54
2021/05/12 09:42:44;;;;;;;;;;;;;;;;;;4993903;28;19918;-53
2021/05/12 09:45:09;;;;;;;;;;;;;;;;;;4992751;28;19919;-54
2021/05/12 09:47:35;;;;;;;;;;;;;;;;;;4993703;28;20324;-54
2021/05/12 09:50:00;;;;;;;;;;;;;;;;;;4993716;28;19968;-56
2021/05/12 09:52:25;;;;;;;;;;;;;;;;;;4976359;28;19961;-54
2021/05/12 09:54:50;;;;;;;;;;;;;;;;;;4993012;28;19914;-53
2021/05/12 09:57:15;;;;;;;;;;;;;;;;;;4993671;28;19937;-55
2021/05/12 09:59:41;;;;;;;;;;;;;;;;;;4992444;28;19914;-56
2021/05/12 10:02:06;;;;;;;;;;;;;;;;;;4992547;28;19960;-55
2021/05/12 10:04:33;;;;;;;;;;;;;;;;;;4991860;28;19918;-55
2021/05/12 10:06:59;;;;;;;;;;;;;;;;;;4989803;28;20000;-53
2021/05/12 10:09:24;;;;;;;;;;;;;;;;;;4984351;28;20033;-57
2021/05/12 10:11:49;;;;;;;;;;;;;;;;;;4973926;28;20358;-53
2021/05/12 10:14:14;;;;;;;;;;;;;;;;;;4973940;28;19914;-52
2021/05/12 10:16:40;;;;;;;;;;;;;;;;;;4972426;28;19914;-51
2021/05/12 10:19:05;;;;;;;;;;;;;;;;;;4972714;28;19910;-54
2021/05/12 10:21:30;;;;;;;;;;;;;;;;;;4978727;28;19918;-55
2021/05/12 10:23:55;;;;;;;;;;;;;;;;;;4981562;28;19919;-53
2021/05/12 10:26:21;;;;;;;;;;;;;;;;;;4973095;28;19914;-54
2021/05/12 10:28:46;;;;;;;;;;;;;;;;;;4973727;28;20372;-57
2021/05/12 10:31:11;;;;;;;;;;;;;;;;;;4973941;28;19918;-54
2021/05/12 10:33:36;;;;;;;;;;;;;;;;;;4984034;28;19933;-56
2021/05/12 10:36:01;;;;;;;;;;;;;;;;;;4993213;28;19918;-54
2021/05/12 10:38:27;;;;;;;;;;;;;;;;;;4988633;28;19961;-58
2021/05/12 10:40:52;;;;;;;;;;;;;;;;;;4973064;28;19918;-55
2021/05/12 10:43:22;;;;;;;;;;;;;;;;;;4972343;28;20385;-54
2021/05/12 10:45:53;;;;;;;;;;;;;;;;;;4973766;28;19918;-55
2021/05/12 10:48:19;;;;;;;;;;;;;;;;;;4973961;28;19926;-56
2021/05/12 10:50:44;;;;;;;;;;;;;;;;;;4973107;28;19914;-59
2021/05/12 10:53:09;;;;;;;;;;;;;;;;;;4972785;28;20009;-55
2021/05/12 10:55:34;;;;;;;;;;;;;;;;;;4973646;28;20401;-56
2021/05/12 10:58:00;;;;;;;;;;;;;;;;;;4990859;28;19917;-56
2021/05/12 11:00:25;;;;;;;;;;;;;;;;;;4991379;28;19964;-56
2021/05/12 11:02:50;;;;;;;;;;;;;;;;;;4992932;28;19922;-53
2021/05/12 11:05:15;;;;;;;;;;;;;;;;;;4991847;28;19913;-56
2021/05/12 11:07:41;;;;;;;;;;;;;;;;;;4991940;28;19918;-54
2021/05/12 11:10:06;;;;;;;;;;;;;;;;;;4992279;28;20288;-56
2021/05/12 11:12:31;;;;;;;;;;;;;;;;;;4989212;28;19913;-56
2021/05/12 11:14:57;;;;;;;;;;;;;;;;;;4985434;28;20017;-55
2021/05/12 11:17:22;;;;;;;;;;;;;;;;;;4985721;28;19988;-55
2021/05/12 11:19:53;;;;;;;;;;;;;;;;;;4992887;28;20428;-55
2021/05/12 11:22:18;;;;;;;;;;;;;;;;;;4993991;28;19917;-56
2021/05/12 11:24:43;;;;;;;;;;;;;;;;;;4997022;28;19944;-55
2021/05/12 11:27:14;;;;;;;;;;;;;;;;;;4996475;28;19961;-55
2021/05/12 11:32:12;;;;;;;;;;;;;;;;;;4977197;28;20313;-51
2021/05/12 11:34:37;;;;;;;;;;;;;;;;;;4975810;28;19922;-54
2021/05/12 11:37:02;;;;;;;;;;;;;;;;;;4976012;28;19969;-52
2021/05/12 11:39:27;;;;;;;;;;;;;;;;;;4976883;28;19946;-55
2021/05/12 11:41:53;;;;;;;;;;;;;;;;;;4976510;28;19922;-53
2021/05/12 11:44:18;;;;;;;;;;;;;;;;;;4978094;28;19918;-55
2021/05/12 11:46:43;;;;;;;;;;;;;;;;;;4996066;28;20543;-54
2021/05/12 11:49:10;;;;;;;;;;;;;;;;;;4995264;28;19940;-55
2021/05/12 11:51:35;;;;;;;;;;;;;;;;;;4996025;28;19929;-54
2021/05/12 11:54:00;;;;;;;;;;;;;;;;;;4996625;28;19914;-54
2021/05/12 11:56:25;;;;;;;;;;;;;;;;;;4995854;28;19917;-53
2021/05/12 11:58:52;;;;;;;;;;;;;;;;;;4994671;28;19937;-54
2021/05/12 12:01:18;;;;;;;;;;;;;;;;;;4994639;28;19961;-56
2021/05/12 12:03:46;;;;;;;;;;;;;;;;;;4994590;28;20318;-55
2021/05/12 12:06:11;;;;;;;;;;;;;;;;;;4995050;28;19914;-54
2021/05/12 12:08:37;;;;;;;;;;;;;;;;;;4995731;28;19921;-53
2021/05/12 12:11:02;;;;;;;;;;;;;;;;;;4995627;28;19920;-53
2021/05/12 12:13:27;;;;;;;;;;;;;;;;;;4995666;28;19922;-56
2021/05/12 12:15:53;;;;;;;;;;;;;;;;;;4995637;28;19914;-52
2021/05/12 12:18:18;;;;;;;;;;;;;;;;;;4996113;28;19937;-54
2021/05/12 12:20:43;;;;;;;;;;;;;;;;;;4994332;28;20337;-55
2021/05/12 12:23:10;;;;;;;;;;;;;;;;;;4995858;28;19918;-53
2021/05/12 12:25:51;;;;;;;;;;;;;;;;;;4995503;28;19910;-53
2021/05/12 12:28:16;;;;;;;;;;;;;;;;;;4995250;28;19914;-54
2021/05/12 12:30:41;;;;;;;;;;;;;;;;;;4995628;28;19975;-55
2021/05/12 12:33:07;;;;;;;;;;;;;;;;;;4992939;28;19921;-56
2021/05/12 12:35:32;;;;;;;;;;;;;;;;;;4994618;28;19913;-56
2021/05/12 12:37:57;;;;;;;;;;;;;;;;;;4993994;28;20392;-54
2021/05/12 12:40:24;;;;;;;;;;;;;;;;;;4994155;28;19918;-55
2021/05/12 12:42:49;;;;;;;;;;;;;;;;;;4993379;28;20349;-57
2021/05/12 12:45:15;;;;;;;;;;;;;;;;;;4975606;28;20448;-54
2021/05/12 12:47:40;;;;;;;;;;;;;;;;;;4975894;28;19989;-54
2021/05/12 12:50:05;;;;;;;;;;;;;;;;;;4974513;28;19911;-54
2021/05/12 12:52:30;;;;;;;;;;;;;;;;;;4989832;28;19920;-57
2021/05/12 12:55:01;;;;;;;;;;;;;;;;;;4986622;28;19920;-55
2021/05/12 12:57:26;;;;;;;;;;;;;;;;;;4966452;28;19921;-55
2021/05/12 12:59:52;;;;;;;;;;;;;;;;;;4980489;28;20270;-56
2021/05/12 13:02:17;;;;;;;;;;;;;;;;;;4975922;28;19914;-56
2021/05/12 13:04:42;;;;;;;;;;;;;;;;;;4993327;28;20388;-55
2021/05/12 13:07:07;;;;;;;;;;;;;;;;;;4993827;28;20381;-57
2021/05/12 13:09:33;;;;;;;;;;;;;;;;;;4994968;28;20324;-57
2021/05/12 13:11:58;;;;;;;;;;;;;;;;;;4982255;28;19914;-54
2021/05/12 13:14:23;;;;;;;;;;;;;;;;;;4977218;28;19921;-55
2021/05/12 13:16:48;;;;;;;;;;;;;;;;;;4994479;28;20393;-55
2021/05/12 13:19:14;;;;;;;;;;;;;;;;;;4975171;28;20436;-57
2021/05/12 13:21:39;;;;;;;;;;;;;;;;;;4975358;28;19918;-56
2021/05/12 13:24:05;;;;;;;;;;;;;;;;;;4974935;28;19925;-55
2021/05/12 13:26:33;;;;;;;;;;;;;;;;;;4974665;28;19924;-54
2021/05/12 13:28:58;;;;;;;;;;;;;;;;;;4975105;28;20441;-56
2021/05/12 13:31:27;;;;;;;;;;;;;;;;;;4975424;28;20001;-56
2021/05/12 13:33:53;;;;;;;;;;;;;;;;;;4974886;28;19924;-56
2021/05/12 13:36:18;;;;;;;;;;;;;;;;;;4975316;28;19910;-56
2021/05/12 13:38:43;;;;;;;;;;;;;;;;;;4992168;28;19913;-54
2021/05/12 13:41:08;;;;;;;;;;;;;;;;;;4994173;28;19941;-55
2021/05/12 13:43:34;;;;;;;;;;;;;;;;;;4987798;28;20361;-56
2021/05/12 13:45:59;;;;;;;;;;;;;;;;;;4973503;28;19910;-53
2021/05/12 13:48:24;;;;;;;;;;;;;;;;;;4974706;28;20257;-54
2021/05/12 13:50:50;;;;;;;;;;;;;;;;;;4974968;28;19976;-57
2021/05/12 13:53:28;;;;;;;;;;;;;;;;;;4974261;28;19974;-54
2021/05/12 13:56:15;;;;;;;;;;;;;;;;;;4973658;28;20385;-56
2021/05/12 13:59:39;;;;;;;;;;;;;;;;;;4974850;28;19922;-56
2021/05/12 14:03:58;;;;;;;;;;;;;;;;;;4974224;28;20392;-56
2021/05/12 14:06:33;;;;;;;;;;;;;;;;;;4974496;28;19930;-56
2021/05/12 14:09:07;;;;;;;;;;;;;;;;;;4972775;28;19920;-56
2021/05/12 14:11:33;;;;;;;;;;;;;;;;;;4974005;28;19918;-55
2021/05/12 14:14:11;;;;;;;;;;;;;;;;;;4972944;28;20397;-54
2021/05/12 14:19:01;;;;;;;;;;;;;;;;;;4973017;28;20016;-55
2021/05/12 14:21:27;;;;;;;;;;;;;;;;;;4973030;28;20353;-56
2021/05/12 14:23:52;;;;;;;;;;;;;;;;;;4983028;28;19933;-56
2021/05/12 14:26:17;;;;;;;;;;;;;;;;;;4978847;28;19910;-56
2021/05/12 14:28:52;;;;;;;;;;;;;;;;;;4988001;28;19920;-58
2021/05/12 14:31:18;;;;;;;;;;;;;;;;;;4984225;28;19910;-56
2021/05/12 14:33:43;;;;;;;;;;;;;;;;;;4984791;28;19918;-56
2021/05/12 14:36:09;;;;;;;;;;;;;;;;;;4982764;28;20001;-56
2021/05/12 14:38:34;;;;;;;;;;;;;;;;;;4981477;28;19906;-56
2021/05/12 14:41:00;;;;;;;;;;;;;;;;;;4981837;28;19918;-55
2021/05/12 14:43:25;;;;;;;;;;;;;;;;;;4979369;28;19960;-54
2021/05/12 14:45:50;;;;;;;;;;;;;;;;;;4993117;28;19921;-54
2021/05/12 14:48:23;;;;;;;;;;;;;;;;;;4991609;28;20250;-55
2021/05/12 14:50:50;;;;;;;;;;;;;;;;;;4993674;28;19953;-56
2021/05/12 14:53:22;;;;;;;;;;;;;;;;;;4992027;28;19960;-53
2021/05/12 15:03:35;;;;;;;;;;;;;;;;;;4978161;28;20281;-53
2021/05/12 15:08:32;;;;;;;;;;;;;;;;;;4977911;28;19965;-55
2021/05/12 15:10:58;;;;;;;;;;;;;;;;;;4981243;28;19906;-55
2021/05/12 15:13:23;;;;;;;;;;;;;;;;;;4996205;28;19921;-53
2021/05/12 15:15:48;;;;;;;;;;;;;;;;;;4997356;28;19960;-54
2021/05/12 15:18:13;;;;;;;;;;;;;;;;;;4997341;28;19910;-53
2021/05/12 15:20:39;;;;;;;;;;;;;;;;;;4997326;28;19910;-53
2021/05/12 15:23:04;;;;;;;;;;;;;;;;;;4994258;28;20368;-57
2021/05/12 15:25:29;;;;;;;;;;;;;;;;;;4990551;28;19910;-55
2021/05/12 15:27:57;;;;;;;;;;;;;;;;;;4987099;28;19909;-54
2021/05/12 15:30:22;;;;;;;;;;;;;;;;;;4993624;28;19910;-54
2021/05/12 15:32:47;;;;;;;;;;;;;;;;;;4997315;28;19924;-54
2021/05/12 15:35:13;;;;;;;;;;;;;;;;;;4968643;28;20281;-57
2021/05/12 15:37:38;;;;;;;;;;;;;;;;;;4984511;28;19945;-54
2021/05/12 15:40:04;;;;;;;;;;;;;;;;;;4984342;28;19918;-55
2021/05/12 15:42:29;;;;;;;;;;;;;;;;;;4984425;28;19922;-52
2021/05/12 15:44:56;;;;;;;;;;;;;;;;;;4986366;28;19968;-56
2021/05/12 15:47:21;;;;;;;;;;;;;;;;;;4987043;28;19992;-55
2021/05/12 15:49:47;;;;;;;;;;;;;;;;;;4985605;28;19961;-53
2021/05/12 15:52:14;;;;;;;;;;;;;;;;;;4985263;28;20320;-53
2021/05/12 15:54:41;;;;;;;;;;;;;;;;;;4986934;28;19914;-56
2021/05/12 15:57:07;;;;;;;;;;;;;;;;;;4984325;28;19912;-53
2021/05/12 15:59:33;;;;;;;;;;;;;;;;;;4986107;28;20358;-56
2021/05/12 16:01:59;;;;;;;;;;;;;;;;;;4983749;28;20034;-53
2021/05/12 16:04:25;;;;;;;;;;;;;;;;;;4986521;28;20316;-53
2021/05/12 16:06:50;;;;;;;;;;;;;;;;;;4986879;28;19914;-54
2021/05/12 16:09:15;;;;;;;;;;;;;;;;;;4985095;28;20338;-54
2021/05/12 16:11:41;;;;;;;;;;;;;;;;;;4985906;28;20297;-53
2021/05/12 16:14:06;;;;;;;;;;;;;;;;;;4965930;28;19933;-56
2021/05/12 16:16:31;;;;;;;;;;;;;;;;;;4985830;28;19968;-53
2021/05/12 16:18:57;;;;;;;;;;;;;;;;;;4983820;28;19960;-52
2021/05/12 16:21:22;;;;;;;;;;;;;;;;;;4987073;28;19917;-54
2021/05/12 16:23:48;;;;;;;;;;;;;;;;;;4988317;28;20383;-55
2021/05/12 16:26:13;;;;;;;;;;;;;;;;;;4974092;28;19980;-54
2021/05/12 16:28:38;;;;;;;;;;;;;;;;;;4976829;28;19946;-55
2021/05/12 16:31:04;;;;;;;;;;;;;;;;;;4994916;28;20951;-54
2021/05/12 16:33:29;;;;;;;;;;;;;;;;;;4995778;28;19918;-54
2021/05/12 16:35:54;;;;;;;;;;;;;;;;;;4994463;28;20238;-55
2021/05/12 16:38:19;;;;;;;;;;;;;;;;;;4993078;28;19941;-57
2021/05/12 16:40:45;;;;;;;;;;;;;;;;;;4989438;28;19914;-52
2021/05/12 16:43:10;;;;;;;;;;;;;;;;;;4974680;28;19965;-54
2021/05/12 16:45:35;;;;;;;;;;;;;;;;;;4973195;28;19914;-52
2021/05/12 16:48:07;;;;;;;;;;;;;;;;;;4974365;28;19906;-54
2021/05/12 16:50:33;;;;;;;;;;;;;;;;;;4975856;28;19910;-57
2021/05/12 16:52:58;;;;;;;;;;;;;;;;;;4975083;28;19910;-55
2021/05/12 16:55:24;;;;;;;;;;;;;;;;;;4976344;28;19910;-54
2021/05/12 16:57:49;;;;;;;;;;;;;;;;;;4975335;28;19918;-56
2021/05/12 17:00:14;;;;;;;;;;;;;;;;;;4974033;28;19906;-55
2021/05/12 17:02:40;;;;;;;;;;;;;;;;;;4976161;28;20285;-55